createdAt,value
2018-03-06T00:01:02.448Z,89.39
2018-03-06T00:03:29.942Z,89.43
2018-03-06T00:05:57.658Z,89.55
2018-03-06T00:08:25.283Z,89.40
2018-03-06T00:10:52.856Z,89.50
2018-03-06T00:13:20.385Z,89.33
2018-03-06T00:15:47.915Z,89.04
2018-03-06T00:18:15.437Z,88.78
2018-03-06T00:20:42.942Z,88.76
2018-03-06T00:23:10.482Z,88.64
2018-03-06T00:25:38.048Z,88.67
2018-03-06T00:28:05.613Z,88.74
2018-03-06T00:30:33.188Z,89.01
2018-03-06T00:33:00.820Z,88.74
2018-03-06T00:35:28.303Z,88.78
2018-03-06T00:37:55.950Z,88.86
2018-03-06T00:40:23.495Z,88.58
2018-03-06T00:42:51.078Z,88.23
2018-03-06T00:45:18.621Z,88.35
2018-03-06T00:47:46.200Z,88.45
2018-03-06T00:50:13.742Z,88.43
2018-03-06T00:52:41.380Z,88.69
2018-03-06T00:55:08.991Z,88.60
2018-03-06T00:57:36.536Z,88.80
2018-03-06T01:00:04.082Z,88.92
2018-03-06T01:02:31.602Z,89.15
2018-03-06T01:04:59.210Z,89.16
2018-03-06T01:07:26.785Z,88.65
2018-03-06T01:09:54.424Z,88.80
2018-03-06T01:12:22.026Z,88.77
2018-03-06T01:14:49.604Z,89.26
2018-03-06T01:17:17.228Z,89.41
2018-03-06T01:19:44.722Z,89.47
2018-03-06T01:22:12.269Z,89.62
2018-03-06T01:24:39.808Z,89.36
2018-03-06T01:27:07.451Z,89.42
2018-03-06T01:29:35.018Z,89.59
2018-03-06T01:32:02.569Z,89.80
2018-03-06T01:34:30.093Z,90.00
2018-03-06T01:36:57.714Z,90.06
2018-03-06T01:39:25.358Z,90.26
2018-03-06T01:41:52.928Z,90.34
2018-03-06T01:44:20.434Z,90.27
2018-03-06T01:46:47.985Z,90.33
2018-03-06T01:49:15.499Z,90.51
2018-03-06T01:51:54.843Z,90.53
2018-03-06T01:54:22.386Z,90.89
2018-03-06T01:56:49.904Z,90.78
2018-03-06T01:59:17.467Z,90.98
2018-03-06T02:01:44.989Z,91.21
2018-03-06T02:04:12.513Z,90.97
2018-03-06T02:06:40.083Z,90.80
2018-03-06T02:09:07.687Z,91.49
2018-03-06T02:11:35.255Z,91.74
2018-03-06T02:14:02.991Z,92.01
2018-03-06T02:16:30.557Z,92.16
2018-03-06T02:18:58.140Z,92.07
2018-03-06T02:21:25.696Z,92.50
2018-03-06T02:23:53.292Z,92.68
2018-03-06T02:26:20.929Z,92.77
2018-03-06T02:28:48.466Z,92.55
2018-03-06T02:31:15.995Z,92.59
2018-03-06T02:33:43.594Z,92.61
2018-03-06T02:36:11.210Z,92.63
2018-03-06T02:38:38.846Z,92.66
2018-03-06T02:41:06.342Z,92.97
2018-03-06T02:43:33.940Z,92.86
2018-03-06T02:46:12.031Z,92.57
2018-03-06T02:48:39.597Z,92.52
2018-03-06T02:51:07.183Z,92.39
2018-03-06T02:53:34.777Z,92.31
2018-03-06T02:56:02.296Z,92.57
2018-03-06T02:58:29.826Z,92.42
2018-03-06T03:00:57.365Z,92.67
2018-03-06T03:03:25.048Z,92.52
2018-03-06T03:05:52.685Z,92.68
2018-03-06T03:08:20.271Z,92.64
2018-03-06T03:10:47.802Z,92.78
2018-03-06T03:13:15.394Z,92.68
2018-03-06T03:15:42.939Z,93.12
2018-03-06T03:18:10.497Z,92.96
2018-03-06T03:20:38.047Z,93.20
2018-03-06T03:23:05.623Z,93.32
2018-03-06T03:25:33.168Z,93.18
2018-03-06T03:28:00.762Z,93.05
2018-03-06T03:30:28.322Z,93.57
2018-03-06T03:32:55.864Z,93.86
2018-03-06T03:35:23.396Z,93.95
2018-03-06T03:37:50.977Z,93.72
2018-03-06T03:40:18.585Z,93.49
2018-03-06T03:42:46.122Z,93.57
2018-03-06T03:45:13.879Z,93.38
2018-03-06T03:47:41.411Z,93.26
2018-03-06T03:50:08.919Z,93.32
2018-03-06T03:52:36.459Z,93.38
2018-03-06T03:55:04.113Z,93.15
2018-03-06T03:57:31.672Z,93.49
2018-03-06T03:59:59.209Z,93.82
2018-03-06T04:02:26.737Z,93.65
2018-03-06T04:04:54.356Z,93.47
2018-03-06T04:07:21.916Z,93.76
2018-03-06T04:09:49.481Z,93.81
2018-03-06T04:12:17.050Z,93.70
2018-03-06T04:14:44.673Z,93.68
2018-03-06T04:17:12.211Z,93.51
2018-03-06T04:19:39.786Z,93.26
2018-03-06T04:22:07.366Z,93.17
2018-03-06T04:24:34.859Z,93.77
2018-03-06T04:27:02.439Z,93.71
2018-03-06T04:29:30.165Z,93.87
2018-03-06T04:31:57.727Z,93.81
2018-03-06T04:34:25.448Z,93.82
2018-03-06T04:36:52.973Z,94.41
2018-03-06T04:39:20.528Z,94.55
2018-03-06T04:41:48.071Z,94.49
2018-03-06T04:44:15.638Z,94.85
2018-03-06T04:46:43.272Z,94.61
2018-03-06T04:49:10.766Z,94.46
2018-03-06T04:51:38.454Z,94.79
2018-03-06T04:54:06.055Z,94.74
2018-03-06T04:56:33.659Z,94.63
2018-03-06T04:59:01.194Z,94.62
2018-03-06T05:01:28.741Z,94.51
2018-03-06T05:03:56.253Z,94.55
2018-03-06T05:06:23.769Z,94.66
2018-03-06T05:08:51.278Z,94.82
2018-03-06T05:11:18.834Z,94.70
2018-03-06T05:13:46.374Z,94.54
2018-03-06T05:16:14.038Z,94.73
2018-03-06T05:18:41.639Z,94.72
2018-03-06T05:21:09.179Z,94.58
2018-03-06T05:23:36.789Z,94.63
2018-03-06T05:26:04.340Z,94.67
2018-03-06T05:28:31.887Z,94.50
2018-03-06T05:30:59.428Z,94.56
2018-03-06T05:33:26.953Z,94.53
2018-03-06T05:35:54.486Z,94.78
2018-03-06T05:38:21.985Z,94.70
2018-03-06T05:40:49.510Z,94.70
2018-03-06T05:43:17.029Z,94.50
2018-03-06T05:45:44.555Z,94.84
2018-03-06T05:48:12.082Z,95.03
2018-03-06T05:50:39.625Z,95.14
2018-03-06T05:53:07.206Z,94.41
2018-03-06T05:55:34.704Z,94.71
2018-03-06T05:58:02.251Z,94.92
2018-03-06T06:00:29.828Z,94.87
2018-03-06T06:02:57.331Z,94.91
2018-03-06T06:05:24.848Z,94.62
2018-03-06T06:07:52.389Z,94.65
2018-03-06T06:10:19.971Z,95.04
2018-03-06T06:12:47.487Z,94.67
2018-03-06T06:15:15.031Z,94.40
2018-03-06T06:17:42.655Z,94.50
2018-03-06T06:20:10.244Z,94.44
2018-03-06T06:22:37.795Z,94.43
2018-03-06T06:25:05.313Z,94.80
2018-03-06T06:27:32.849Z,94.37
2018-03-06T06:30:00.348Z,94.32
2018-03-06T06:32:27.916Z,94.43
2018-03-06T06:34:56.149Z,94.46
2018-03-06T06:37:23.776Z,94.28
2018-03-06T06:39:51.387Z,93.97
2018-03-06T06:42:18.971Z,93.81
2018-03-06T06:44:46.508Z,93.17
2018-03-06T06:47:14.136Z,93.20
2018-03-06T06:49:42.621Z,92.73
2018-03-06T06:52:10.243Z,92.74
2018-03-06T06:54:37.757Z,92.75
2018-03-06T06:57:05.292Z,92.67
2018-03-06T06:59:32.784Z,91.98
2018-03-06T07:02:00.311Z,91.63
2018-03-06T07:04:27.844Z,91.33
2018-03-06T07:06:55.473Z,90.74
2018-03-06T07:09:22.965Z,90.45
2018-03-06T07:11:50.453Z,89.51
2018-03-06T07:14:18.005Z,89.36
2018-03-06T07:16:45.509Z,89.72
2018-03-06T07:19:13.030Z,89.05
2018-03-06T07:21:40.532Z,88.91
2018-03-06T07:24:08.145Z,89.57
2018-03-06T07:26:35.685Z,88.47
2018-03-06T07:29:03.194Z,88.05
2018-03-06T07:31:30.769Z,88.37
2018-03-06T07:33:58.299Z,88.94
2018-03-06T07:36:25.834Z,89.27
2018-03-06T07:38:53.360Z,88.78
2018-03-06T07:41:20.867Z,88.32
2018-03-06T07:43:48.399Z,89.18
2018-03-06T07:46:15.940Z,88.03
2018-03-06T07:48:43.449Z,88.35
2018-03-06T07:51:10.941Z,88.13
2018-03-06T07:53:38.440Z,87.04
2018-03-06T07:56:05.923Z,86.27
2018-03-06T07:58:33.532Z,86.14
2018-03-06T08:01:01.034Z,86.25
2018-03-06T08:03:28.548Z,85.41
2018-03-06T08:05:56.054Z,85.07
2018-03-06T08:08:23.646Z,83.95
2018-03-06T08:10:51.122Z,81.58
2018-03-06T08:13:18.653Z,80.57
2018-03-06T08:15:46.187Z,79.28
2018-03-06T08:18:13.802Z,80.00
2018-03-06T08:20:41.329Z,78.58
2018-03-06T08:23:08.886Z,77.90
2018-03-06T08:25:36.381Z,76.37
2018-03-06T08:28:03.919Z,77.00
2018-03-06T08:30:31.454Z,76.82
2018-03-06T08:32:58.998Z,76.96
2018-03-06T08:35:26.479Z,76.98
2018-03-06T08:37:53.988Z,77.53
2018-03-06T08:40:21.522Z,77.54
2018-03-06T08:42:49.040Z,76.82
2018-03-06T08:45:16.544Z,77.84
2018-03-06T08:47:44.043Z,78.14
2018-03-06T08:50:11.569Z,75.68
2018-03-06T08:52:39.082Z,75.28
2018-03-06T08:55:06.598Z,75.33
2018-03-06T08:57:34.184Z,74.54
2018-03-06T09:00:01.732Z,76.69
2018-03-06T09:02:29.336Z,77.39
2018-03-06T09:04:56.886Z,77.03
2018-03-06T09:07:24.434Z,77.02
2018-03-06T09:09:52.058Z,77.71
2018-03-06T09:12:19.556Z,77.56
2018-03-06T09:14:47.120Z,77.61
2018-03-06T09:17:14.622Z,78.66
2018-03-06T09:19:42.117Z,79.12
2018-03-06T09:22:09.610Z,79.12
2018-03-06T09:24:37.202Z,78.89
2018-03-06T09:27:04.742Z,78.11
2018-03-06T09:29:32.278Z,78.77
2018-03-06T09:31:59.819Z,77.17
2018-03-06T09:34:27.321Z,76.93
2018-03-06T09:36:54.881Z,76.88
2018-03-06T09:39:22.408Z,77.45
2018-03-06T09:41:49.977Z,76.82
2018-03-06T09:44:17.502Z,77.11
2018-03-06T09:46:45.060Z,78.29
2018-03-06T09:49:12.575Z,78.22
2018-03-06T09:51:40.088Z,78.09
2018-03-06T09:54:07.588Z,77.48
2018-03-06T09:56:35.496Z,77.54
2018-03-06T09:59:03.004Z,77.65
2018-03-06T10:01:30.538Z,77.33
2018-03-06T10:03:58.033Z,76.10
2018-03-06T10:06:25.577Z,76.39
2018-03-06T10:08:53.138Z,75.25
2018-03-06T10:11:20.668Z,76.51
2018-03-06T10:13:48.432Z,77.38
2018-03-06T10:16:15.955Z,77.69
2018-03-06T10:18:43.489Z,76.83
2018-03-06T10:21:10.974Z,77.16
2018-03-06T10:23:38.523Z,76.37
2018-03-06T10:26:06.038Z,77.42
2018-03-06T10:28:33.600Z,76.64
2018-03-06T10:31:01.213Z,75.62
2018-03-06T10:33:28.702Z,75.65
2018-03-06T10:35:56.240Z,77.38
2018-03-06T10:38:23.754Z,77.69
2018-03-06T10:40:51.259Z,78.74
2018-03-06T10:43:19.631Z,79.35
2018-03-06T10:45:47.131Z,77.89
2018-03-06T10:48:14.655Z,79.98
2018-03-06T10:50:42.243Z,78.91
2018-03-06T10:53:09.758Z,79.16
2018-03-06T10:55:37.296Z,79.55
2018-03-06T10:58:04.778Z,79.61
2018-03-06T11:00:37.891Z,78.52
2018-03-06T11:03:05.393Z,78.26
2018-03-06T11:05:32.942Z,77.63
2018-03-06T11:08:00.471Z,78.48
2018-03-06T11:10:27.957Z,79.16
2018-03-06T11:12:55.460Z,78.82
2018-03-06T11:15:22.978Z,77.85
2018-03-06T11:17:50.456Z,78.13
2018-03-06T11:20:18.282Z,77.12
2018-03-06T11:22:45.785Z,77.34
2018-03-06T11:25:13.384Z,77.35
2018-03-06T11:27:40.878Z,77.17
2018-03-06T11:30:08.435Z,76.63
2018-03-06T11:32:35.953Z,77.20
2018-03-06T11:35:03.573Z,77.53
2018-03-06T11:37:31.105Z,77.62
2018-03-06T11:39:58.631Z,77.44
2018-03-06T11:42:26.161Z,78.08
2018-03-06T11:44:53.712Z,77.51
2018-03-06T11:47:21.197Z,77.84
2018-03-06T11:49:48.736Z,77.29
2018-03-06T11:52:16.285Z,75.98
2018-03-06T11:54:43.815Z,74.84
2018-03-06T11:57:11.332Z,74.62
2018-03-06T11:59:38.820Z,75.11
2018-03-06T12:02:06.370Z,75.77
2018-03-06T12:04:33.870Z,75.80
2018-03-06T12:07:01.364Z,76.11
2018-03-06T12:09:28.848Z,75.17
2018-03-06T12:11:56.354Z,74.54
2018-03-06T12:14:23.877Z,74.78
2018-03-06T12:16:51.433Z,74.25
2018-03-06T12:19:19.057Z,74.66
2018-03-06T12:21:46.566Z,74.42
2018-03-06T12:24:14.110Z,74.42
2018-03-06T12:26:41.690Z,73.94
2018-03-06T12:29:09.186Z,74.10
2018-03-06T12:31:36.749Z,74.30
2018-03-06T12:34:04.262Z,74.45
2018-03-06T12:36:31.819Z,74.25
2018-03-06T12:38:59.346Z,74.33
2018-03-06T12:41:26.912Z,74.00
2018-03-06T12:43:54.429Z,74.43
2018-03-06T12:46:21.966Z,74.55
2018-03-06T12:48:49.470Z,74.19
2018-03-06T12:51:17.022Z,74.94
2018-03-06T12:53:44.590Z,74.39
2018-03-06T12:56:12.180Z,74.27
2018-03-06T12:58:39.730Z,74.04
2018-03-06T13:01:07.280Z,74.64
2018-03-06T13:03:34.804Z,74.40
2018-03-06T13:06:02.363Z,75.05
2018-03-06T13:08:29.915Z,75.50
2018-03-06T13:10:57.503Z,75.12
2018-03-06T13:13:24.986Z,74.98
2018-03-06T13:15:52.517Z,74.87
2018-03-06T13:18:20.020Z,74.61
2018-03-06T13:20:47.554Z,75.35
2018-03-06T13:23:15.080Z,75.81
2018-03-06T13:25:42.583Z,75.85
2018-03-06T13:28:10.101Z,75.92
2018-03-06T13:30:37.604Z,75.73
2018-03-06T13:33:05.132Z,76.21
2018-03-06T13:35:32.657Z,76.34
2018-03-06T13:38:00.316Z,76.19
2018-03-06T13:40:28.749Z,76.22
2018-03-06T13:42:56.293Z,76.29
2018-03-06T13:45:23.826Z,76.62
2018-03-06T13:47:51.327Z,76.56
2018-03-06T13:50:18.899Z,76.76
2018-03-06T13:52:46.413Z,76.40
2018-03-06T13:55:14.047Z,76.23
2018-03-06T13:57:41.576Z,76.63
2018-03-06T14:00:09.076Z,76.57
2018-03-06T14:02:36.641Z,76.58
2018-03-06T14:05:04.154Z,76.47
2018-03-06T14:07:31.714Z,76.23
2018-03-06T14:09:59.198Z,76.54
2018-03-06T14:12:26.780Z,76.84
2018-03-06T14:14:54.310Z,76.66
2018-03-06T14:17:21.806Z,76.82
2018-03-06T14:19:49.335Z,77.38
2018-03-06T14:22:17.330Z,77.81
2018-03-06T14:24:44.946Z,77.82
2018-03-06T14:27:12.514Z,77.82
2018-03-06T14:29:40.380Z,77.25
2018-03-06T14:32:07.958Z,76.83
2018-03-06T14:34:35.522Z,75.81
2018-03-06T14:37:03.022Z,75.56
2018-03-06T14:39:30.560Z,76.17
2018-03-06T14:41:58.069Z,76.05
2018-03-06T14:44:25.738Z,76.45
2018-03-06T14:46:53.223Z,77.21
2018-03-06T14:49:21.577Z,76.97
2018-03-06T14:51:49.087Z,77.08
2018-03-06T14:54:16.594Z,77.56
2018-03-06T14:56:44.126Z,77.37
2018-03-06T14:59:11.660Z,77.62
2018-03-06T15:01:39.208Z,77.23
2018-03-06T15:04:06.720Z,77.41
2018-03-06T15:06:34.255Z,77.56
2018-03-06T15:09:01.759Z,77.88
2018-03-06T15:11:29.240Z,77.95
2018-03-06T15:13:56.740Z,78.27
2018-03-06T15:16:24.247Z,78.93
2018-03-06T15:18:51.768Z,77.93
2018-03-06T15:21:19.318Z,78.38
2018-03-06T15:23:46.820Z,77.72
2018-03-06T15:26:14.367Z,78.49
2018-03-06T15:28:41.909Z,78.46
2018-03-06T15:31:09.428Z,78.44
2018-03-06T15:33:36.925Z,78.80
2018-03-06T15:36:04.502Z,78.85
2018-03-06T15:38:32.016Z,78.82
2018-03-06T15:40:59.536Z,78.65
2018-03-06T15:43:27.062Z,78.97
2018-03-06T15:45:54.651Z,79.16
2018-03-06T15:48:22.176Z,79.36
2018-03-06T15:50:49.717Z,79.50
2018-03-06T15:53:17.356Z,79.15
2018-03-06T15:55:44.881Z,79.73
2018-03-06T15:58:12.416Z,79.85
2018-03-06T16:00:39.998Z,79.55
2018-03-06T16:03:07.537Z,79.93
2018-03-06T16:05:35.101Z,79.84
2018-03-06T16:08:02.658Z,79.89
2018-03-06T16:10:30.268Z,80.70
2018-03-06T16:12:57.802Z,80.29
2018-03-06T16:15:25.320Z,80.68
2018-03-06T16:17:52.862Z,80.59
2018-03-06T16:20:20.379Z,80.88
2018-03-06T16:22:47.964Z,80.74
2018-03-06T16:25:15.521Z,80.63
2018-03-06T16:27:43.045Z,80.94
2018-03-06T16:30:10.693Z,81.14
2018-03-06T16:32:38.229Z,81.08
2018-03-06T16:35:05.734Z,81.54
2018-03-06T16:37:33.289Z,81.93
2018-03-06T16:40:00.839Z,81.98
2018-03-06T16:42:28.495Z,82.04
2018-03-06T16:44:56.037Z,81.82
2018-03-06T16:47:23.655Z,82.10
2018-03-06T16:49:51.251Z,81.92
2018-03-06T16:52:19.152Z,81.87
2018-03-06T16:54:49.224Z,81.73
2018-03-06T16:57:16.906Z,82.01
2018-03-06T16:59:44.577Z,81.91
2018-03-06T17:02:12.117Z,81.98
2018-03-06T17:04:39.796Z,82.13
2018-03-06T17:07:07.345Z,82.32
2018-03-06T17:09:34.884Z,82.36
2018-03-06T17:12:02.428Z,82.53
2018-03-06T17:14:29.981Z,82.82
2018-03-06T17:16:57.516Z,82.92
2018-03-06T17:19:25.125Z,83.30
2018-03-06T17:21:52.749Z,83.44
2018-03-06T17:24:20.268Z,83.39
2018-03-06T17:26:47.831Z,83.26
2018-03-06T17:29:15.372Z,83.00
2018-03-06T17:31:42.912Z,83.23
2018-03-06T17:34:10.446Z,83.62
2018-03-06T17:36:37.982Z,83.54
2018-03-06T17:39:05.527Z,83.62
2018-03-06T17:41:33.082Z,83.89
2018-03-06T17:44:00.601Z,83.98
2018-03-06T17:46:28.137Z,83.85
2018-03-06T17:48:56.359Z,83.97
2018-03-06T17:51:24.377Z,83.98
2018-03-06T17:53:51.991Z,83.94
2018-03-06T17:56:19.817Z,83.70
2018-03-06T17:58:47.625Z,83.69
2018-03-06T18:01:15.406Z,83.84
2018-03-06T18:03:43.190Z,83.75
2018-03-06T18:06:11.011Z,83.83
2018-03-06T18:08:38.842Z,83.92
2018-03-06T18:11:07.537Z,83.80
2018-03-06T18:13:35.335Z,83.88
2018-03-06T18:16:03.281Z,83.88
2018-03-06T18:18:31.127Z,83.98
2018-03-06T18:20:58.873Z,83.80
2018-03-06T18:23:26.591Z,83.80
2018-03-06T18:25:54.353Z,83.63
2018-03-06T18:28:22.131Z,83.78
2018-03-06T18:30:49.828Z,83.91
2018-03-06T18:33:17.627Z,83.95
2018-03-06T18:35:45.319Z,83.94
2018-03-06T18:38:14.125Z,83.97
2018-03-06T18:40:42.242Z,84.09
2018-03-06T18:43:09.927Z,84.47
2018-03-06T18:45:37.662Z,84.42
2018-03-06T18:48:05.460Z,84.26
2018-03-06T18:50:45.310Z,84.38
2018-03-06T18:53:13.302Z,84.55
2018-03-06T18:55:41.126Z,84.63
2018-03-06T18:58:09.889Z,84.72
2018-03-06T19:04:05.690Z,85.00
2018-03-06T19:09:34.146Z,84.67
2018-03-06T19:12:02.076Z,84.72
2018-03-06T19:14:30.856Z,84.81
2018-03-06T19:16:58.576Z,84.47
2018-03-06T19:19:26.314Z,84.49
2018-03-06T19:21:54.243Z,84.58
2018-03-06T19:24:21.941Z,84.52
2018-03-06T19:26:49.732Z,84.46
2018-03-06T19:29:17.485Z,84.44
2018-03-06T19:31:45.317Z,84.50
2018-03-06T19:34:13.190Z,84.29
2018-03-06T19:36:41.048Z,84.43
2018-03-06T19:39:08.902Z,84.13
2018-03-06T19:41:36.786Z,84.16
2018-03-06T19:44:04.832Z,84.25
2018-03-06T19:46:32.661Z,84.27
2018-03-06T19:49:00.596Z,84.06
2018-03-06T19:51:28.749Z,84.07
2018-03-06T19:53:56.690Z,84.05
2018-03-06T19:56:24.556Z,84.15
2018-03-06T19:58:52.320Z,84.23
2018-03-06T20:01:20.923Z,84.29
2018-03-06T20:03:49.513Z,84.37
2018-03-06T20:06:20.637Z,84.48
2018-03-06T20:08:48.635Z,84.87
2018-03-06T20:11:18.545Z,84.95
2018-03-06T20:13:49.228Z,84.98
2018-03-06T20:16:17.436Z,85.15
2018-03-06T20:18:47.504Z,85.21
2018-03-06T20:21:19.736Z,85.32
2018-03-06T20:23:47.762Z,85.32
2018-03-06T20:26:15.914Z,85.14
2018-03-06T20:28:44.014Z,85.24
2018-03-06T20:31:18.859Z,85.28
2018-03-06T20:33:46.662Z,85.25
2018-03-06T20:36:14.660Z,84.87
2018-03-06T20:38:48.225Z,85.01
2018-03-06T20:41:16.068Z,85.02
2018-03-06T20:43:43.859Z,84.89
2018-03-06T20:46:18.434Z,85.05
2018-03-06T20:48:46.276Z,84.87
2018-03-06T20:51:14.109Z,84.75
2018-03-06T20:53:48.008Z,84.46
2018-03-06T20:56:15.836Z,84.71
2018-03-06T20:58:43.771Z,84.81
2018-03-06T21:01:11.602Z,84.93
2018-03-06T21:03:39.403Z,85.08
2018-03-06T21:06:07.156Z,85.22
2018-03-06T21:08:35.196Z,85.18
2018-03-06T21:11:02.971Z,85.47
2018-03-06T21:13:30.807Z,85.39
2018-03-06T21:15:58.481Z,85.34
2018-03-06T21:18:26.229Z,85.46
2018-03-06T21:20:54.044Z,85.53
2018-03-06T21:23:21.592Z,85.28
2018-03-06T21:25:49.108Z,85.82
2018-03-06T21:28:16.670Z,86.34
2018-03-06T21:30:44.231Z,86.10
2018-03-06T21:33:11.828Z,86.35
2018-03-06T21:35:39.439Z,86.06
2018-03-06T21:38:07.054Z,86.20
2018-03-06T21:40:34.672Z,86.10
2018-03-06T21:43:02.329Z,86.22
2018-03-06T21:45:29.875Z,86.18
2018-03-06T21:47:57.460Z,86.18
2018-03-06T21:50:25.063Z,86.12
2018-03-06T21:52:52.746Z,86.08
2018-03-06T21:55:20.294Z,86.07
2018-03-06T21:57:47.843Z,85.93
2018-03-06T22:00:15.369Z,85.90
2018-03-06T22:02:42.861Z,85.88
2018-03-06T22:05:10.383Z,85.76
2018-03-06T22:07:37.960Z,86.10
2018-03-06T22:10:05.508Z,86.03
2018-03-06T22:12:33.030Z,85.85
2018-03-06T22:15:00.588Z,86.08
2018-03-06T22:17:28.113Z,86.21
2018-03-06T22:19:55.626Z,86.78
2018-03-06T22:22:23.236Z,86.42
2018-03-06T22:24:50.824Z,86.62
2018-03-06T22:27:18.387Z,86.79
2018-03-06T22:29:45.947Z,86.89
2018-03-06T22:32:13.482Z,87.18
2018-03-06T22:34:41.094Z,87.25
2018-03-06T22:37:08.640Z,87.25
2018-03-06T22:39:36.150Z,87.17
2018-03-06T22:42:03.728Z,87.29
2018-03-06T22:44:31.334Z,87.45
2018-03-06T22:46:58.882Z,87.62
2018-03-06T22:49:27.750Z,87.54
2018-03-06T22:51:55.490Z,88.11
2018-03-06T22:54:24.340Z,88.51
2018-03-06T22:56:52.701Z,88.59
2018-03-06T22:59:20.267Z,88.90
2018-03-06T23:01:47.765Z,88.92
2018-03-06T23:04:15.313Z,89.31
2018-03-06T23:06:42.818Z,89.04
2018-03-06T23:09:10.356Z,88.94
2018-03-06T23:11:37.965Z,88.98
2018-03-06T23:14:05.522Z,89.35
2018-03-06T23:16:33.167Z,89.24
2018-03-06T23:19:00.720Z,89.15
2018-03-06T23:21:28.272Z,89.27
2018-03-06T23:23:56.731Z,89.20
2018-03-06T23:26:24.302Z,89.26
2018-03-06T23:28:51.929Z,89.19
2018-03-06T23:31:19.442Z,89.77
2018-03-06T23:33:46.962Z,89.48
2018-03-06T23:36:14.550Z,89.90
2018-03-06T23:38:42.095Z,89.98
2018-03-06T23:41:09.610Z,90.51
2018-03-06T23:43:37.165Z,90.87
2018-03-06T23:46:04.671Z,91.37
2018-03-06T23:48:32.562Z,91.55
2018-03-06T23:51:00.131Z,92.18
2018-03-06T23:53:27.826Z,92.69
2018-03-06T23:55:55.374Z,92.61
2018-03-06T23:58:22.962Z,92.73
